LLIB  Ben Ya'akov  Airport

Rosh Pina, Israel

Add Bookmark
ICAO LLIB
IATA RPN
Type Airport
Status Operational
Latitude
32° 58' 51" N
32.980999
Longitude
35° 34' 18" E
35.571899
Local (DST + 3) UTC (GMT + 2)
Jul 6, 2015 12:01 Jul 5, 2015 21:01
Sunrise-Sunset Local UTC
Begin Civil Twilight 05:05 02:05
Sunrise 05:33 02:33
Sunset 07:51 16:51
End Civil Twilight 08:19 17:19
VFR
VFR
MVFR
MVFR
IFR
IFR
LIFR
LIFR
Unknown
Unavailable

Current Weather

METAR Observed VFR
LLIB 051450Z 33011KT CAVOK 32/11 Q1011 Sun, Jul 5, 2015 @ 14:50 UTC
(6 Hours, 11 Minutes ago)
Visual Flight Rules
Wind Visibility Conditions
330° at 11 knots (20 kph) 10 km or more
  • No significant weather
Temperatures Readings Precipitation
Current Temp
32°C
90°F
Dewpoint
11°C
52°F
Humidity 27%
Altimeter 29.85" Hg
Sea Level Pressure 1,011 mb
Field Elevation
282 m
925 ft
None Recorded

Additional weather within a 92.6km radius of LLIB

Map ICAO Location
LLHA 53km W/SW (249°)
VFR
VFR
MVFR
MVFR
IFR
IFR
LIFR
LIFR
Unknown
Unavailable
-
-

CheckWX.com is intended as a tool to help pilots better visualize weather data. It is not intended as a substitute for an official weather briefing obtained from a Flight Service Station. CheckWX.com does not meet the FAA requirements for an official pre-flight weather briefing. Therefore, it's important that pilots still call and obtain an official FSS pre-flight weather briefing.

© 2007-2015 CheckWX.com
21:01:05 UTC